Webcam Richtung Westen

Webcam27

Webcam Richtung Norden

Webcam36

Webcam Richtung Osten

Webcam09

Wetter(Würzburg):
140300Z AUTO 17004G05KT 20KM ////// 12/11 Q1016
		
Mon 14.10.2019, 03:00 UTC

Sichtweite bis zu 20 km
Wind aus 170° mit 04kt, in Böen bis zu 05kt

Temperatur: 12 °C
Taupunkt: 11 °C
QNH: 1016 hPa
                         Heute        Morgen
                         14.10        15.10
--------------------------------------------
Beginn der Dämmerung     05:07        05:08
Sonnenaufgang            05:39        05:41
Sonnenuntergang          16:34        16:32
Ende der Dämmerung       17:06        17:04

Alle Zeiten in UTC